Rosati, Missouri
Current Conditions -  °F | °C
As of 3:53 AM on Wednesday 26 Nov 2014 (Local Time) from KVIH Reporting Station
Clear Clear  
Wind Chill: 21°   Ceiling: Unl
Heat Index: 30°   Visibility: 10mi
Dew Point: 18°   Wind: 12mph
Humidity: 61%   Direction: 140°SE
Pressure: 30"   Gusts: NA
Location:  37.9936°N, 91.5964°W
Report Text: KVIH 260953Z AUTO 14010KT 10SM CLR M01/M08 A3000 RMK AO2 SLP165 T10111078
Loading
Personal Weather Stations






























Interactive Weather Map New forecast layout! Learn more

10-Day Weather Forecast

Advertisements
Track Severe Weather on mobile